Warda, Texas
Current Conditions -  °F | °C
As of 12:15 PM on Saturday 25 Oct 2014 (Local Time) from KGYB Reporting Station
Clear Clear  
Wind Chill: 80°   Ceiling: Unl
Heat Index: 80°   Visibility: 10mi
Dew Point: 58°   Wind: 3mph
Humidity: 46%   Direction: 230°SW
Pressure: 30.21"   Gusts: NA
Location:  30.06°N, 96.91°W
Report Text: KGYB 251715Z AUTO 23003KT 10SM CLR 27/14 A3021 RMK AO2 T02660142
Loading
Personal Weather Stations






























Interactive Weather Map
Tropical Storm Tracking
New forecast layout! Learn more

10-Day Weather Forecast

Advertisements
Track Severe Weather on mobile